Time;durP1;ratioP1;P1;durP2;ratioP2;P2;SDS_P1;SDS_P2;PMS_P1;PMS_P2;Temp;Humidity;BMP_temperature;BMP_pressure;BME280_temperature;BME280_humidity;BME280_pressure;Samples;Min_cycle;Max_cycle;Signal;HPM_P1;HPM_P2
2022/06/17 00:01:24;;;;;;;8.20;3.70;;;21.40;1.00;;;;;;5031141;28;20256;-67
2022/06/17 00:03:51;;;;;;;4.85;3.38;;;21.40;1.00;;;;;;5031537;28;20189;-67
2022/06/17 00:06:19;;;;;;;6.95;3.33;;;21.40;1.00;;;;;;5032011;28;20186;-67
2022/06/17 00:08:49;;;;;;;4.82;3.42;;;21.30;1.00;;;;;;5031653;28;20707;-67
2022/06/17 00:11:24;;;;;;;3.95;3.15;;;21.40;1.00;;;;;;5031787;28;20219;-68
2022/06/17 00:13:50;;;;;;;3.95;2.97;;;21.30;1.00;;;;;;5031772;28;20219;-68
2022/06/17 00:16:18;;;;;;;3.63;2.72;;;21.30;1.00;;;;;;5031553;28;20689;-67
2022/06/17 00:18:44;;;;;;;5.10;3.58;;;21.20;1.00;;;;;;5053281;28;20169;-68
2022/06/17 00:21:29;;;;;;;3.25;2.95;;;21.10;1.00;;;;;;5053466;28;20177;-67
2022/06/17 00:23:56;;;;;;;3.47;2.97;;;21.10;1.00;;;;;;5053429;28;20256;-69
2022/06/17 00:26:21;;;;;;;3.63;3.30;;;21.00;1.00;;;;;;5053374;28;20173;-68
2022/06/17 00:28:48;;;;;;;5.68;3.10;;;21.00;1.00;;;;;;5053236;28;20173;-68
2022/06/17 00:31:14;;;;;;;8.43;3.28;;;21.00;1.00;;;;;;5053121;28;20166;-68
2022/06/17 00:33:40;;;;;;;3.72;3.20;;;21.00;43.20;;;;;;5052631;28;20227;-68
2022/06/17 00:36:11;;;;;;;5.05;2.90;;;20.90;99.90;;;;;;5053195;28;20749;-68
2022/06/17 00:38:37;;;;;;;7.30;3.10;;;20.90;93.50;;;;;;5053330;28;20180;-68
2022/06/17 00:41:29;;;;;;;5.22;3.60;;;20.90;98.20;;;;;;5053459;28;20173;-68
2022/06/17 00:43:55;;;;;;;4.53;3.30;;;20.80;99.90;;;;;;5047458;28;20178;-68
2022/06/17 00:46:45;;;;;;;3.95;3.30;;;20.80;99.90;;;;;;5052764;28;20166;-67
2022/06/17 00:49:26;;;;;;;4.97;3.10;;;20.80;99.90;;;;;;5053091;28;20228;-67
2022/06/17 00:52:49;;;;;;;5.82;3.75;;;20.80;99.90;;;;;;5053139;28;20184;-67
2022/06/17 00:55:55;;;;;;;6.22;3.38;;;20.70;99.90;;;;;;5011287;28;20214;-67
2022/06/17 00:58:43;;;;;;;9.02;3.20;;;20.70;99.90;;;;;;4972292;28;20187;-67
2022/06/17 01:01:11;;;;;;;4.13;3.08;;;20.60;99.90;;;;;;4987627;28;20207;-68
2022/06/17 01:03:37;;;;;;;3.85;3.47;;;20.60;1.00;;;;;;4991610;28;20183;-67
2022/06/17 01:06:11;;;;;;;4.22;3.30;;;20.60;1.00;;;;;;4991737;28;20670;-67
2022/06/17 01:11:30;;;;;;;3.90;3.50;;;20.50;1.00;;;;;;4992082;28;20202;-67
2022/06/17 01:13:58;;;;;;;4.78;3.67;;;20.50;1.00;;;;;;4995164;28;20171;-67
2022/06/17 01:16:29;;;;;;;3.53;3.22;;;20.50;1.00;;;;;;4995080;28;20339;-67
2022/06/17 01:18:57;;;;;;;3.55;3.05;;;20.50;1.00;;;;;;4995345;28;20218;-67
2022/06/17 01:21:47;;;;;;;4.00;3.40;;;20.40;58.60;;;;;;4995475;28;20183;-67
2022/06/17 01:24:14;;;;;;;3.38;3.00;;;20.30;99.90;;;;;;4995260;28;20203;-67
2022/06/17 01:26:40;;;;;;;3.83;3.47;;;20.40;1.00;;;;;;4995209;28;20184;-67
2022/06/17 01:29:15;;;;;;;3.58;3.38;;;20.40;1.00;;;;;;4995151;28;20273;-67
2022/06/17 01:31:47;;;;;;;3.70;3.30;;;20.30;1.00;;;;;;4994997;28;20202;-67
2022/06/17 01:34:13;;;;;;;3.30;3.00;;;20.30;99.90;;;;;;5010553;28;20185;-67
2022/06/17 01:36:41;;;;;;;4.75;3.58;;;20.30;99.90;;;;;;5036472;28;20185;-67
2022/06/17 01:39:06;;;;;;;3.28;3.08;;;20.30;1.00;;;;;;5036513;28;20261;-67
2022/06/17 01:41:34;;;;;;;3.80;3.30;;;20.30;99.90;;;;;;5036632;28;20198;-67
2022/06/17 01:44:23;;;;;;;4.40;3.10;;;20.30;99.90;;;;;;5036779;28;20182;-67
2022/06/17 01:46:52;;;;;;;4.20;3.10;;;20.30;99.90;;;;;;5033029;28;20216;-68
2022/06/17 01:49:33;;;;;;;4.57;3.45;;;20.20;55.80;;;;;;5036368;28;20185;-67
2022/06/17 01:52:14;;;;;;;3.47;3.17;;;20.30;1.00;;;;;;5036599;28;20319;-67
2022/06/17 01:55:18;;;;;;;3.22;2.92;;;20.20;1.00;;;;;;5036384;28;20198;-67
2022/06/17 01:58:10;;;;;;;3.53;3.25;;;20.20;1.00;;;;;;5014189;28;20186;-67
2022/06/17 02:00:36;;;;;;;5.15;3.97;;;20.20;65.90;;;;;;5014242;28;20218;-67
2022/06/17 02:03:12;;;;;;;3.47;2.83;;;20.20;99.90;;;;;;5031570;28;20245;-67
2022/06/17 02:05:41;;;;;;;3.33;3.00;;;20.20;1.00;;;;;;5034252;28;20174;-67
2022/06/17 02:08:07;;;;;;;4.22;3.45;;;20.20;1.00;;;;;;5034184;28;20236;-68
2022/06/17 02:10:41;;;;;;;5.57;3.30;;;20.20;1.00;;;;;;5033969;28;20178;-66
2022/06/17 02:13:09;;;;;;;3.80;3.20;;;20.20;1.00;;;;;;5034055;28;20178;-68
2022/06/17 02:15:35;;;;;;;3.33;3.13;;;20.20;1.00;;;;;;5033640;28;20248;-68
2022/06/17 02:18:05;;;;;;;5.65;2.88;;;20.20;1.00;;;;;;5033989;28;20172;-68
2022/06/17 02:20:31;;;;;;;3.50;2.92;;;20.20;1.00;;;;;;5033935;28;20182;-68
2022/06/17 02:22:57;;;;;;;6.25;2.95;;;20.20;99.90;;;;;;5033237;28;20496;-68
2022/06/17 02:25:27;;;;;;;3.92;3.40;;;20.20;99.90;;;;;;5033726;28;20253;-68
2022/06/17 02:27:56;;;;;;;4.00;3.58;;;20.20;99.90;;;;;;5033400;28;20178;-67
2022/06/17 02:30:23;;;;;;;3.35;3.05;;;20.20;99.90;;;;;;5033893;28;20170;-67
2022/06/17 02:32:49;;;;;;;3.33;3.10;;;20.20;99.90;;;;;;5040046;28;20653;-67
2022/06/17 02:35:31;;;;;;;3.78;3.20;;;20.20;99.90;;;;;;5055555;28;20203;-68
2022/06/17 02:37:56;;;;;;;3.53;2.95;;;20.20;1.00;;;;;;5055829;28;20169;-68
2022/06/17 02:40:31;;;;;;;3.72;3.08;;;20.10;1.00;;;;;;5055525;28;20261;-68
2022/06/17 02:43:00;;;;;;;7.15;3.33;;;20.10;1.00;;;;;;5055293;28;20168;-68
2022/06/17 02:45:30;;;;;;;5.10;2.95;;;20.20;99.90;;;;;;5055427;28;20531;-68
2022/06/17 02:47:56;;;;;;;4.18;3.47;;;20.20;99.90;;;;;;5055267;28;20173;-68
2022/06/17 02:50:26;;;;;;;3.95;3.08;;;20.20;99.90;;;;;;5055418;28;20169;-68
2022/06/17 02:52:54;;;;;;;6.85;3.33;;;20.20;99.90;;;;;;5055225;28;20173;-68
2022/06/17 02:55:40;;;;;;;4.60;3.30;;;20.20;99.90;;;;;;5055000;28;20213;-67
2022/06/17 02:58:16;;;;;;;3.40;2.90;;;20.20;99.90;;;;;;5054735;28;20178;-67
2022/06/17 03:00:43;;;;;;;3.47;2.88;;;20.20;99.90;;;;;;5055064;28;20193;-67
2022/06/17 03:03:13;;;;;;;4.55;3.45;;;20.30;99.90;;;;;;5073185;28;20224;-67
2022/06/17 03:05:42;;;;;;;4.45;3.20;;;20.30;92.50;;;;;;5075052;28;20195;-67
2022/06/17 03:08:26;;;;;;;4.80;3.55;;;20.30;24.70;;;;;;5074897;28;20184;-67
2022/06/17 03:10:58;;;;;;;3.42;3.13;;;20.30;1.00;;;;;;5074714;28;20168;-67
2022/06/17 03:13:42;;;;;;;3.15;2.95;;;20.40;99.90;;;;;;5074055;28;20180;-68
2022/06/17 03:16:12;;;;;;;4.20;3.05;;;20.40;1.00;;;;;;5074071;28;20216;-67
2022/06/17 03:18:38;;;;;;;4.82;3.10;;;20.40;1.00;;;;;;5074861;28;20289;-67
2022/06/17 03:21:06;;;;;;;3.58;3.08;;;20.40;1.00;;;;;;5074374;28;20272;-68
2022/06/17 03:23:48;;;;;;;5.40;3.13;;;20.50;1.00;;;;;;5074666;28;20612;-67
2022/06/17 03:26:18;;;;;;;3.38;3.08;;;20.50;1.00;;;;;;5073840;28;20203;-68
2022/06/17 03:28:48;;;;;;;3.80;3.38;;;20.60;1.00;;;;;;5074340;28;20230;-68
2022/06/17 03:31:32;;;;;;;5.07;2.90;;;20.50;1.00;;;;;;5074478;28;20164;-68
2022/06/17 03:34:05;;;;;;;3.30;3.05;;;20.40;1.00;;;;;;5074095;28;20176;-68
2022/06/17 03:36:37;;;;;;;4.70;2.97;;;20.40;1.00;;;;;;5073358;28;20232;-68
2022/06/17 03:39:11;;;;;;;5.88;3.15;;;20.40;1.00;;;;;;5074410;28;20176;-68
2022/06/17 03:41:46;;;;;;;5.82;3.00;;;20.40;1.00;;;;;;5073537;28;20188;-68
2022/06/17 03:44:19;;;;;;;3.60;2.72;;;20.40;1.00;;;;;;5073562;28;20175;-67
2022/06/17 03:47:09;;;;;;;3.13;2.92;;;20.50;1.00;;;;;;5073109;28;20172;-67
2022/06/17 03:49:43;;;;;;;3.63;3.00;;;20.50;1.00;;;;;;5073362;28;20193;-68
2022/06/17 03:52:31;;;;;;;5.78;3.13;;;20.40;1.00;;;;;;5073661;28;20644;-67
2022/06/17 03:54:57;;;;;;;6.68;3.30;;;20.40;1.00;;;;;;5073231;28;20211;-67
2022/06/17 03:57:25;;;;;;;3.10;2.90;;;20.30;1.00;;;;;;5073459;28;20173;-68
2022/06/17 03:59:52;;;;;;;4.18;2.88;;;20.30;1.00;;;;;;5073258;28;20566;-68
2022/06/17 04:02:19;;;;;;;3.20;2.90;;;20.30;40.80;;;;;;5072549;28;20660;-67
2022/06/17 04:04:50;;;;;;;4.07;3.10;;;20.20;8.50;;;;;;5073869;28;20175;-68
2022/06/17 04:07:16;;;;;;;3.28;2.90;;;20.30;1.00;;;;;;5073489;28;20164;-68
2022/06/17 04:09:44;;;;;;;6.28;3.13;;;20.20;36.00;;;;;;5072283;28;20660;-67
2022/06/17 04:12:12;;;;;;;7.15;3.40;;;20.20;57.40;;;;;;5072578;28;20187;-67
2022/06/17 04:14:38;;;;;;;8.02;3.30;;;20.20;66.10;;;;;;5072354;28;20200;-67
2022/06/17 04:17:33;;;;;;;3.72;2.90;;;20.20;99.90;;;;;;5072817;28;20259;-68
2022/06/17 04:20:16;;;;;;;5.72;3.00;;;20.20;97.70;;;;;;5031021;28;20186;-68
2022/06/17 04:22:46;;;;;;;3.33;2.80;;;20.20;99.90;;;;;;5030523;28;20683;-68
2022/06/17 04:25:18;;;;;;;3.30;3.00;;;20.20;97.90;;;;;;5030266;28;20185;-68
2022/06/17 04:27:56;;;;;;;3.50;3.10;;;20.20;99.90;;;;;;5030201;28;20174;-68
2022/06/17 04:30:27;;;;;;;3.45;3.15;;;20.30;53.90;;;;;;5030898;28;20182;-68
2022/06/17 04:32:58;;;;;;;6.68;3.17;;;20.30;1.00;;;;;;5030509;28;20170;-68
2022/06/17 04:35:24;;;;;;;4.75;3.53;;;20.40;1.00;;;;;;5030789;28;20275;-68
2022/06/17 04:37:49;;;;;;;5.97;3.28;;;20.50;1.00;;;;;;5030877;28;20184;-68
2022/06/17 04:40:31;;;;;;;5.18;3.30;;;20.60;1.00;;;;;;5030231;28;20260;-68
2022/06/17 04:42:58;;;;;;;6.13;3.10;;;20.70;99.90;;;;;;5031038;28;20193;-68
2022/06/17 04:45:27;;;;;;;4.25;3.00;;;20.90;99.90;;;;;;5030611;28;20176;-69
2022/06/17 04:47:53;;;;;;;3.30;2.90;;;21.00;7.90;;;;;;5030875;28;20192;-68
2022/06/17 04:50:23;;;;;;;6.07;2.78;;;21.00;39.00;;;;;;5030501;28;20178;-67
2022/06/17 04:52:51;;;;;;;4.15;3.20;;;21.00;1.00;;;;;;5029595;28;20265;-68
2022/06/17 04:55:28;;;;;;;3.75;3.17;;;21.10;1.00;;;;;;5033093;28;20218;-68
2022/06/17 04:57:54;;;;;;;7.63;3.00;;;21.20;1.00;;;;;;5072721;28;20161;-67
2022/06/17 05:00:25;;;;;;;4.47;2.75;;;21.30;1.00;;;;;;5072486;28;20164;-67
2022/06/17 05:02:52;;;;;;;5.15;2.90;;;21.40;1.00;;;;;;5072277;28;20262;-68
2022/06/17 05:05:34;;;;;;;5.18;2.95;;;21.60;1.00;;;;;;5072359;28;20184;-68
2022/06/17 05:08:03;;;;;;;5.13;3.00;;;21.70;1.00;;;;;;5072311;28;20222;-68
2022/06/17 05:10:33;;;;;;;8.20;3.17;;;21.80;1.00;;;;;;5072167;28;20234;-68
2022/06/17 05:13:13;;;;;;;4.07;2.95;;;21.80;1.00;;;;;;5071016;28;20165;-68
2022/06/17 05:15:38;;;;;;;3.35;3.05;;;22.00;1.00;;;;;;5072210;28;20626;-68
2022/06/17 05:18:05;;;;;;;7.03;2.88;;;21.90;1.00;;;;;;5070818;28;20169;-68
2022/06/17 05:20:31;;;;;;;5.78;3.10;;;21.90;1.00;;;;;;5071682;28;20259;-68
2022/06/17 05:23:00;;;;;;;7.07;3.20;;;22.00;1.00;;;;;;5071710;28;20207;-69
2022/06/17 05:25:29;;;;;;;4.45;2.85;;;22.20;1.00;;;;;;5072394;28;20650;-69
2022/06/17 05:27:55;;;;;;;5.43;3.20;;;22.30;1.00;;;;;;5071681;28;20632;-69
2022/06/17 05:30:21;;;;;;;4.93;2.95;;;22.50;1.00;;;;;;5071664;28;20211;-68
2022/06/17 05:32:54;;;;;;;8.63;3.30;;;22.60;1.00;;;;;;5071658;28;20774;-69
2022/06/17 05:35:21;;;;;;;9.07;3.83;;;22.70;1.00;;;;;;5071571;28;20533;-68
2022/06/17 05:37:47;;;;;;;5.53;3.47;;;22.90;1.00;;;;;;5071547;28;20199;-68
2022/06/17 05:40:14;;;;;;;5.22;2.88;;;22.90;99.90;;;;;;5070805;28;20176;-68
2022/06/17 05:42:40;;;;;;;6.15;3.05;;;22.90;99.90;;;;;;5071802;28;20239;-67
2022/06/17 05:45:08;;;;;;;7.72;3.53;;;22.80;99.90;;;;;;5071167;28;20176;-68
2022/06/17 05:47:34;;;;;;;7.97;3.22;;;22.80;99.90;;;;;;5071942;28;20173;-68
2022/06/17 05:49:59;;;;;;;4.95;3.10;;;22.90;99.90;;;;;;5071587;28;20519;-68
2022/06/17 05:52:25;;;;;;;8.73;3.33;;;22.90;99.90;;;;;;5070898;28;20310;-69
2022/06/17 05:54:58;;;;;;;5.88;3.58;;;23.00;99.90;;;;;;5071475;28;20562;-68
2022/06/17 05:57:23;;;;;;;7.72;3.17;;;23.10;99.90;;;;;;5071520;28;20215;-68
2022/06/17 05:59:49;;;;;;;7.43;3.38;;;23.30;99.90;;;;;;5074740;28;20199;-68
2022/06/17 06:02:14;;;;;;;3.58;2.65;;;23.10;99.90;;;;;;5074035;28;20244;-68
2022/06/17 06:04:40;;;;;;;6.43;3.30;;;23.10;99.90;;;;;;5074613;28;20683;-68
2022/06/17 06:07:06;;;;;;;7.97;3.45;;;23.10;99.90;;;;;;5073649;28;20181;-68
2022/06/17 06:09:31;;;;;;;7.32;3.33;;;23.20;99.90;;;;;;5074543;28;20272;-68
2022/06/17 06:11:57;;;;;;;8.30;3.90;;;23.30;99.90;;;;;;5075101;28;20183;-69
2022/06/17 06:14:22;;;;;;;6.30;3.30;;;23.30;99.90;;;;;;5075476;28;20173;-68
2022/06/17 06:16:48;;;;;;;9.85;3.67;;;23.40;99.90;;;;;;5074588;28;20538;-68
2022/06/17 06:19:13;;;;;;;8.07;3.38;;;23.90;99.90;;;;;;5075407;28;20168;-68
2022/06/17 06:21:39;;;;;;;6.53;2.95;;;25.50;99.90;;;;;;5073749;28;20218;-70
2022/06/17 06:24:05;;;;;;;13.85;4.32;;;27.20;99.90;;;;;;5074851;28;20527;-70
2022/06/17 06:26:30;;;;;;;6.22;3.20;;;29.20;99.90;;;;;;5074474;28;20252;-70
2022/06/17 06:28:56;;;;;;;7.18;3.42;;;30.10;99.90;;;;;;5074893;28;20180;-70
2022/06/17 06:31:27;;;;;;;6.30;3.22;;;31.30;99.90;;;;;;5074783;28;20169;-69
2022/06/17 06:33:53;;;;;;;8.20;3.40;;;31.80;99.90;;;;;;5074389;28;20189;-71
2022/06/17 06:36:19;;;;;;;7.38;3.03;;;32.90;93.50;;;;;;5085620;28;20212;-71
2022/06/17 06:38:44;;;;;;;6.40;3.28;;;33.40;74.60;;;;;;5081988;28;20184;-70
2022/06/17 06:41:10;;;;;;;6.25;3.65;;;34.00;61.70;;;;;;5075461;28;20184;-71
2022/06/17 06:43:36;;;;;;;9.82;4.47;;;34.40;51.90;;;;;;5075498;28;20568;-70
2022/06/17 06:46:07;;;;;;;6.53;3.78;;;34.10;48.90;;;;;;5075289;28;20279;-69
2022/06/17 06:48:33;;;;;;;5.20;3.20;;;33.80;48.50;;;;;;5077850;28;20230;-70
2022/06/17 06:50:59;;;;;;;4.18;2.95;;;34.10;40.70;;;;;;5076684;28;20181;-69
2022/06/17 06:53:24;;;;;;;6.20;2.97;;;33.20;40.60;;;;;;5078252;28;20187;-69
2022/06/17 06:55:50;;;;;;;6.72;3.22;;;33.10;41.40;;;;;;5076433;28;20212;-70
2022/06/17 06:58:19;;;;;;;5.22;3.38;;;33.40;38.40;;;;;;5075859;28;20172;-70
2022/06/17 07:00:47;;;;;;;7.00;4.00;;;33.10;39.70;;;;;;5083796;28;20291;-69
2022/06/17 07:03:13;;;;;;;6.40;3.55;;;33.20;40.80;;;;;;5093482;28;20227;-70
2022/06/17 07:05:44;;;;;;;16.95;3.80;;;34.20;35.90;;;;;;5077835;28;20188;-70
2022/06/17 07:08:15;;;;;;;7.00;3.58;;;35.00;29.70;;;;;;5072699;28;20183;-70
2022/06/17 07:10:42;;;;;;;8.00;3.42;;;35.90;24.60;;;;;;5073501;28;20182;-70
2022/06/17 07:13:08;;;;;;;7.40;3.45;;;35.90;19.80;;;;;;5072509;28;20176;-70
2022/06/17 07:15:39;;;;;;;5.35;3.38;;;36.00;16.20;;;;;;5072152;28;20204;-71
2022/06/17 07:18:21;;;;;;;10.65;3.78;;;37.20;13.00;;;;;;5073235;28;20165;-71
2022/06/17 07:20:49;;;;;;;8.90;3.90;;;37.90;6.70;;;;;;5073848;28;20215;-70
2022/06/17 07:23:18;;;;;;;5.03;3.75;;;37.80;1.20;;;;;;5073990;28;20605;-70
2022/06/17 07:25:44;;;;;;;4.97;3.28;;;38.20;1.00;;;;;;5073024;28;20623;-70
2022/06/17 07:28:16;;;;;;;4.45;3.60;;;37.90;1.00;;;;;;5073547;28;20172;-70
2022/06/17 07:30:44;;;;;;;9.05;4.15;;;36.70;1.00;;;;;;5073774;28;20164;-70
2022/06/17 07:33:10;;;;;;;8.15;3.83;;;36.60;1.00;;;;;;5072924;28;20263;-70
2022/06/17 07:35:37;;;;;;;6.45;3.50;;;36.40;1.00;;;;;;5073681;28;20204;-69
2022/06/17 07:40:49;;;;;;;5.97;3.80;;;36.10;1.00;;;;;;5073786;28;20187;-70
2022/06/17 07:43:18;;;;;;;4.93;3.50;;;36.20;1.00;;;;;;5074017;28;20604;-70
2022/06/17 07:45:45;;;;;;;5.00;3.50;;;36.20;3.30;;;;;;5093609;28;20220;-70
2022/06/17 07:48:12;;;;;;;8.73;4.05;;;36.00;1.00;;;;;;5090046;28;20321;-70
2022/06/17 07:50:41;;;;;;;4.78;3.40;;;35.20;1.00;;;;;;5090263;28;20191;-72
2022/06/17 07:53:07;;;;;;;6.72;4.03;;;35.00;1.00;;;;;;5093140;28;20191;-70
2022/06/17 07:55:33;;;;;;;6.75;3.80;;;34.70;1.00;;;;;;5093478;28;20191;-71
2022/06/17 07:57:59;;;;;;;5.32;3.55;;;34.90;1.00;;;;;;5092851;28;20610;-70
2022/06/17 08:00:31;;;;;;;7.38;3.55;;;35.80;1.00;;;;;;5093113;28;20604;-70
2022/06/17 08:02:56;;;;;;;6.80;3.67;;;35.50;1.00;;;;;;5091010;28;20564;-69
2022/06/17 08:05:22;;;;;;;8.77;3.88;;;35.60;9.20;;;;;;5079477;28;20180;-71
2022/06/17 08:07:49;;;;;;;11.63;4.70;;;36.30;1.00;;;;;;5072466;28;20186;-70
2022/06/17 08:10:20;;;;;;;5.53;3.53;;;37.40;1.00;;;;;;5072672;28;20227;-70
2022/06/17 08:12:45;;;;;;;5.15;3.83;;;37.80;1.00;;;;;;5072480;28;20180;-69
2022/06/17 08:15:12;;;;;;;6.82;3.83;;;38.50;1.00;;;;;;5072686;28;20550;-70
2022/06/17 08:17:39;;;;;;;7.32;4.00;;;39.00;1.00;;;;;;5072619;28;20188;-70
2022/06/17 08:20:16;;;;;;;6.68;3.60;;;39.30;1.00;;;;;;5072710;28;20163;-70
2022/06/17 08:22:42;;;;;;;9.43;3.67;;;38.70;1.00;;;;;;5073392;28;20167;-70
2022/06/17 08:25:09;;;;;;;8.63;3.42;;;38.00;1.00;;;;;;5087243;28;20178;-70
2022/06/17 08:27:50;;;;;;;6.57;4.10;;;37.70;1.00;;;;;;5089159;28;20183;-70
2022/06/17 08:30:18;;;;;;;8.27;3.33;;;37.60;1.00;;;;;;5089525;28;20189;-71
2022/06/17 08:32:47;;;;;;;5.40;3.10;;;37.30;1.00;;;;;;5092042;28;20175;-71
2022/06/17 08:35:18;;;;;;;5.20;3.40;;;37.20;1.00;;;;;;5092445;28;20222;-71
2022/06/17 08:37:45;;;;;;;5.35;3.30;;;37.50;1.00;;;;;;5092639;28;20168;-70
2022/06/17 08:40:30;;;;;;;2.80;2.60;;;37.30;1.00;;;;;;5092616;28;20637;-70
2022/06/17 08:43:14;;;;;;;6.00;3.15;;;38.10;1.00;;;;;;5092532;28;20500;-70
2022/06/17 08:46:20;;;;;;;4.45;2.90;;;38.60;1.00;;;;;;5092591;28;20225;-70
2022/06/17 08:49:16;;;;;;;3.05;2.50;;;39.60;1.00;;;;;;5026268;28;20595;-70
2022/06/17 08:52:10;;;;;;;3.53;2.58;;;39.40;1.00;;;;;;5092461;28;20262;-70
2022/06/17 08:55:03;;;;;;;3.13;2.50;;;38.80;1.00;;;;;;5092432;28;20638;-70
2022/06/17 08:57:39;;;;;;;4.88;2.47;;;37.40;1.00;;;;;;5092273;28;20270;-70
2022/06/17 09:00:25;;;;;;;4.13;2.33;;;37.30;1.00;;;;;;5091940;28;20175;-72
2022/06/17 09:02:59;;;;;;;4.25;2.78;;;37.40;1.00;;;;;;5092231;28;20223;-71
2022/06/17 09:05:33;;;;;;;6.65;3.10;;;37.50;1.00;;;;;;5089053;28;20171;-71
2022/06/17 09:08:18;;;;;;;4.90;2.60;;;37.80;1.00;;;;;;5092242;28;20498;-71
2022/06/17 09:10:57;;;;;;;4.28;2.72;;;37.80;1.00;;;;;;5089047;28;20178;-72
2022/06/17 09:13:55;;;;;;;4.55;2.55;;;38.20;1.00;;;;;;5087983;28;20707;-71
2022/06/17 09:16:36;;;;;;;3.63;2.50;;;39.70;1.00;;;;;;5071527;28;20226;-71
2022/06/17 09:19:03;;;;;;;4.32;2.42;;;39.00;1.00;;;;;;5081259;28;20198;-71
2022/06/17 09:21:31;;;;;;;10.43;3.70;;;37.70;1.00;;;;;;5074245;28;20237;-72
2022/06/17 09:24:04;;;;;;;3.47;2.05;;;38.30;1.00;;;;;;5090866;28;20171;-72
2022/06/17 09:26:39;;;;;;;6.07;2.22;;;38.20;1.00;;;;;;5077511;28;20238;-71
2022/06/17 09:29:14;;;;;;;5.38;2.00;;;37.00;1.00;;;;;;5073338;28;20529;-72
2022/06/17 09:31:49;;;;;;;4.95;2.60;;;37.50;1.00;;;;;;5091117;28;20191;-71
2022/06/17 09:34:27;;;;;;;6.15;2.10;;;35.90;1.00;;;;;;5074054;28;20195;-71
2022/06/17 09:36:57;;;;;;;3.08;2.03;;;35.40;1.00;;;;;;5094073;28;20171;-70
2022/06/17 09:39:40;;;;;;;3.05;1.88;;;35.00;1.00;;;;;;5075104;28;20267;-71
2022/06/17 09:42:15;;;;;;;4.78;2.10;;;34.20;1.00;;;;;;5090583;28;20161;-71
2022/06/17 09:44:54;;;;;;;8.02;4.90;;;34.20;1.00;;;;;;5076747;28;20263;-71
2022/06/17 09:47:58;;;;;;;4.20;3.65;;;34.80;1.00;;;;;;5092487;28;20229;-71
2022/06/17 09:50:32;;;;;;;4.43;2.15;;;35.40;1.00;;;;;;5006285;28;20187;-71
2022/06/17 09:53:10;;;;;;;2.92;2.17;;;35.30;1.00;;;;;;5013301;28;20186;-72
2022/06/17 09:55:41;;;;;;;2.15;1.67;;;35.90;1.00;;;;;;5000749;28;20174;-69
2022/06/17 09:58:32;;;;;;;3.17;2.05;;;35.80;1.00;;;;;;5007538;28;20174;-69
2022/06/17 10:00:58;;;;;;;5.03;2.30;;;34.40;1.00;;;;;;5013105;28;20281;-71
2022/06/17 10:03:35;;;;;;;6.28;2.17;;;34.80;1.00;;;;;;5013422;28;20657;-71
2022/06/17 10:06:03;;;;;;;14.02;4.30;;;34.80;1.00;;;;;;5012630;28;20226;-70
2022/06/17 10:08:32;;;;;;;4.38;2.00;;;35.90;1.00;;;;;;5013604;28;20174;-71
2022/06/17 10:11:15;;;;;;;3.75;2.40;;;35.80;1.00;;;;;;5013541;28;20178;-71
2022/06/17 10:14:01;;;;;;;1.98;1.77;;;35.30;1.00;;;;;;5012496;28;20190;-71
2022/06/17 10:20:19;;;;;;;4.38;2.63;;;35.30;1.00;;;;;;4990487;28;20179;-71
2022/06/17 10:23:05;;;;;;;4.72;1.98;;;36.30;1.00;;;;;;4999274;28;20662;-70
2022/06/17 10:25:54;;;;;;;3.58;2.10;;;36.00;1.00;;;;;;5020847;28;20216;-71
2022/06/17 10:28:37;;;;;;;4.45;2.30;;;36.10;1.00;;;;;;5057058;28;20910;-71
2022/06/17 10:31:14;;;;;;;2.50;2.20;;;37.00;1.00;;;;;;5054669;28;20173;-71
2022/06/17 10:33:40;;;;;;;9.20;2.10;;;38.10;1.00;;;;;;5054511;28;20199;-71
2022/06/17 10:36:06;;;;;;;4.53;2.55;;;38.30;1.00;;;;;;5053511;28;20189;-70
2022/06/17 10:38:37;;;;;;;5.40;2.72;;;37.60;1.00;;;;;;5054462;28;20196;-70
2022/06/17 10:41:03;;;;;;;6.63;2.67;;;37.40;1.00;;;;;;5054234;28;20203;-72
2022/06/17 10:43:37;;;;;;;2.20;2.00;;;35.20;1.00;;;;;;5053895;28;20184;-71
2022/06/17 10:46:05;;;;;;;3.45;2.28;;;35.30;1.00;;;;;;5054158;28;20569;-71
2022/06/17 10:48:33;;;;;;;3.08;2.40;;;35.50;1.00;;;;;;5054207;28;20173;-71
2022/06/17 10:51:02;;;;;;;4.97;2.42;;;36.50;1.00;;;;;;5054428;28;20176;-71
2022/06/17 10:53:31;;;;;;;2.95;2.40;;;37.20;1.00;;;;;;5053982;28;20173;-71
2022/06/17 10:56:01;;;;;;;3.42;1.75;;;37.50;1.00;;;;;;5054547;28;20660;-71
2022/06/17 10:58:30;;;;;;;3.08;1.90;;;36.30;1.00;;;;;;5054342;28;20616;-71
2022/06/17 11:01:11;;;;;;;5.85;2.10;;;35.60;1.00;;;;;;5054449;28;20196;-72
2022/06/17 11:03:42;;;;;;;2.45;2.08;;;35.60;1.00;;;;;;5073121;28;20216;-71
2022/06/17 11:06:16;;;;;;;5.15;2.15;;;36.90;1.00;;;;;;5074343;28;20682;-72
2022/06/17 11:09:00;;;;;;;3.50;2.30;;;37.60;1.00;;;;;;5074404;28;20259;-71
2022/06/17 11:14:45;;;;;;;3.08;2.30;;;37.20;1.00;;;;;;5074145;28;20179;-71
2022/06/17 11:17:17;;;;;;;3.22;1.90;;;36.70;1.00;;;;;;5042906;28;20245;-71
2022/06/17 11:19:45;;;;;;;6.75;2.13;;;36.00;1.00;;;;;;5073992;28;20190;-71
2022/06/17 11:22:29;;;;;;;3.85;2.20;;;35.40;1.00;;;;;;5073826;28;20251;-71
2022/06/17 11:25:00;;;;;;;5.00;2.90;;;35.40;1.00;;;;;;5073219;28;20210;-72
2022/06/17 11:27:41;;;;;;;6.38;2.60;;;35.30;1.00;;;;;;5073678;28;20245;-71
2022/06/17 11:30:24;;;;;;;3.53;1.70;;;35.00;1.00;;;;;;5074231;28;20168;-71
2022/06/17 11:32:51;;;;;;;3.65;1.90;;;34.90;1.00;;;;;;5073182;28;20180;-70
2022/06/17 11:35:39;;;;;;;2.72;2.15;;;34.80;1.00;;;;;;5073181;28;20642;-71
2022/06/17 11:38:12;;;;;;;2.20;2.05;;;35.30;1.00;;;;;;5068332;28;20234;-70
2022/06/17 11:40:48;;;;;;;3.55;2.25;;;35.00;1.00;;;;;;5073382;28;20195;-71
2022/06/17 11:43:26;;;;;;;4.45;2.00;;;34.80;1.00;;;;;;5073259;28;20184;-72
2022/06/17 11:45:51;;;;;;;10.32;2.00;;;34.90;1.00;;;;;;5073787;28;20349;-70
2022/06/17 11:48:20;;;;;;;2.58;2.00;;;34.60;1.00;;;;;;5073173;28;20638;-70
2022/06/17 11:51:06;;;;;;;2.20;2.00;;;34.90;1.00;;;;;;5073550;28;20209;-71
2022/06/17 11:53:43;;;;;;;3.70;2.00;;;34.40;1.00;;;;;;5071460;28;20539;-71
2022/06/17 11:56:09;;;;;;;4.53;2.83;;;34.10;1.00;;;;;;5072525;28;20241;-70
2022/06/17 11:58:53;;;;;;;4.70;2.10;;;33.70;1.00;;;;;;5073406;28;20169;-71
2022/06/17 12:01:19;;;;;;;5.45;2.30;;;33.90;1.00;;;;;;5072938;28;20548;-70
2022/06/17 12:03:45;;;;;;;4.97;2.42;;;33.80;1.00;;;;;;5072616;28;20177;-71
2022/06/17 12:06:28;;;;;;;4.80;2.50;;;34.10;1.00;;;;;;5072865;28;20208;-69
2022/06/17 12:09:10;;;;;;;7.35;3.03;;;33.70;1.00;;;;;;5072641;28;20175;-70
2022/06/17 12:11:43;;;;;;;2.05;1.90;;;33.40;1.00;;;;;;5073267;28;20168;-69
2022/06/17 12:14:26;;;;;;;3.05;1.83;;;33.20;1.00;;;;;;5072744;28;20173;-70
2022/06/17 12:16:52;;;;;;;3.60;1.95;;;33.20;1.00;;;;;;5072998;28;20703;-69
2022/06/17 12:19:21;;;;;;;3.13;1.92;;;32.70;1.00;;;;;;5073369;28;20176;-69
2022/06/17 12:22:05;;;;;;;5.32;2.22;;;32.30;1.00;;;;;;5073252;28;20172;-69
2022/06/17 12:24:48;;;;;;;7.13;2.60;;;32.50;1.00;;;;;;5072274;28;20180;-69
2022/06/17 12:27:41;;;;;;;6.65;1.92;;;32.60;1.00;;;;;;5072642;28;20184;-68
2022/06/17 12:30:14;;;;;;;5.30;1.77;;;32.40;1.00;;;;;;5073452;28;20226;-67
2022/06/17 12:32:56;;;;;;;3.08;1.70;;;32.30;1.00;;;;;;5072364;28;20568;-67
2022/06/17 12:35:25;;;;;;;2.08;1.88;;;32.10;1.00;;;;;;5072227;28;20203;-67
2022/06/17 12:38:04;;;;;;;4.97;2.10;;;31.60;1.00;;;;;;5072602;28;20176;-69
2022/06/17 12:40:52;;;;;;;4.07;2.17;;;31.90;1.00;;;;;;5072377;28;20168;-68
2022/06/17 12:43:48;;;;;;;2.28;1.85;;;31.90;1.00;;;;;;5072869;28;20172;-69
2022/06/17 12:46:24;;;;;;;2.83;1.77;;;31.70;1.00;;;;;;5072456;28;20306;-69
2022/06/17 12:55:33;;;;;;;2.22;1.88;;;32.10;1.00;;;;;;5072843;28;20179;-69
2022/06/17 12:58:06;;;;;;;6.28;2.13;;;31.90;1.00;;;;;;5072263;28;20191;-70
2022/06/17 13:00:47;;;;;;;2.92;2.20;;;32.10;1.00;;;;;;5072307;28;20220;-69
2022/06/17 13:03:15;;;;;;;3.85;1.90;;;32.10;1.00;;;;;;5072250;28;20315;-69
2022/06/17 13:05:43;;;;;;;2.92;1.90;;;32.20;1.00;;;;;;5072522;28;20750;-69
2022/06/17 13:08:15;;;;;;;6.45;1.95;;;32.40;1.00;;;;;;5076681;28;20168;-69
2022/06/17 13:11:02;;;;;;;7.95;2.00;;;32.20;1.00;;;;;;5078785;28;20199;-70
2022/06/17 13:13:43;;;;;;;2.22;1.92;;;31.80;1.00;;;;;;5077850;28;20187;-69
2022/06/17 13:16:26;;;;;;;4.45;2.00;;;32.20;1.00;;;;;;5078771;28;20233;-70
2022/06/17 13:19:11;;;;;;;7.65;2.10;;;32.30;1.00;;;;;;5078833;28;20534;-69
2022/06/17 13:21:48;;;;;;;4.47;2.17;;;32.30;1.00;;;;;;5078823;28;20179;-70
2022/06/17 13:24:26;;;;;;;3.58;1.90;;;32.20;1.00;;;;;;5078956;28;20176;-69
2022/06/17 13:27:04;;;;;;;5.15;2.58;;;32.00;5.10;;;;;;5078554;28;20215;-69
2022/06/17 13:29:35;;;;;;;5.25;2.22;;;32.10;1.00;;;;;;5078691;28;20171;-70
2022/06/17 13:32:07;;;;;;;5.95;2.40;;;32.10;1.00;;;;;;5078963;28;20255;-69
2022/06/17 13:34:41;;;;;;;3.63;2.25;;;32.10;5.80;;;;;;5078761;28;20169;-69
2022/06/17 13:37:30;;;;;;;4.30;2.45;;;32.00;1.00;;;;;;5078568;28;20174;-69
2022/06/17 13:40:00;;;;;;;3.53;2.17;;;32.00;1.00;;;;;;5078397;28;20176;-69
2022/06/17 13:42:28;;;;;;;9.88;2.65;;;32.00;1.00;;;;;;5078184;28;20564;-69